Time;durP1;ratioP1;P1;durP2;ratioP2;P2;SDS_P1;SDS_P2;PMS_P1;PMS_P2;Temp;Humidity;BMP_temperature;BMP_pressure;BME280_temperature;BME280_humidity;BME280_pressure;Samples;Min_cycle;Max_cycle;Signal;HPM_P1;HPM_P2
2023/08/26 00:01:26;;;;;;;;;;;;;;;16.74;100.00;100895.22;5028025;28;19912;-65
2023/08/26 00:03:51;;;;;;;;;;;;;;;16.68;100.00;100900.50;5027857;28;20094;-65
2023/08/26 00:06:17;;;;;;;;;;;;;;;16.64;100.00;100902.25;5027549;28;19909;-65
2023/08/26 00:08:42;;;;;;;;;;;;;;;16.58;100.00;100904.00;5027154;28;20031;-65
2023/08/26 00:11:07;;;;;;;;;;;;;;;16.59;100.00;100904.00;5027851;28;19902;-65
2023/08/26 00:13:32;;;;;;;;;;;;;;;16.45;100.00;100900.50;5027695;28;19905;-65
2023/08/26 00:15:57;;;;;;;;;;;;;;;16.38;100.00;100901.38;5027466;28;20154;-65
2023/08/26 00:18:22;;;;;;;;;;;;;;;16.36;100.00;100897.88;5027619;28;20124;-65
2023/08/26 00:20:48;;;;;;;;;;;;;;;16.34;100.00;100901.38;5023577;28;19943;-65
2023/08/26 00:23:13;;;;;;;;;;;;;;;16.31;100.00;100903.13;5027380;28;19944;-65
2023/08/26 00:25:38;;;;;;;;;;;;;;;16.16;100.00;100904.88;5027334;28;19910;-65
2023/08/26 00:28:03;;;;;;;;;;;;;;;16.06;100.00;100900.47;5027529;28;19908;-65
2023/08/26 00:30:29;;;;;;;;;;;;;;;16.03;100.00;100900.44;5027385;28;19913;-65
2023/08/26 00:32:54;;;;;;;;;;;;;;;16.02;100.00;100911.84;5027043;28;19906;-65
2023/08/26 00:35:19;;;;;;;;;;;;;;;15.93;100.00;100911.81;5026661;28;19948;-65
2023/08/26 00:37:44;;;;;;;;;;;;;;;15.88;100.00;100906.53;5027650;28;19940;-65
2023/08/26 00:40:10;;;;;;;;;;;;;;;15.85;100.00;100903.06;5026431;28;19906;-65
2023/08/26 00:42:36;;;;;;;;;;;;;;;15.85;100.00;100900.41;5014467;28;20100;-65
2023/08/26 00:45:01;;;;;;;;;;;;;;;15.82;100.00;100903.91;5023446;28;19901;-65
2023/08/26 00:47:26;;;;;;;;;;;;;;;15.84;100.00;100906.53;5026842;28;19913;-65
2023/08/26 00:49:52;;;;;;;;;;;;;;;15.74;100.00;100900.34;5025312;28;19911;-65
2023/08/26 00:52:17;;;;;;;;;;;;;;;15.71;100.00;100900.34;5024007;28;19912;-65
2023/08/26 00:54:42;;;;;;;;;;;;;;;15.70;100.00;100909.06;5024875;28;19943;-65
2023/08/26 00:57:08;;;;;;;;;;;;;;;15.66;100.00;100908.19;5026909;28;20257;-65
2023/08/26 00:59:34;;;;;;;;;;;;;;;15.62;100.00;100902.03;5026091;28;19905;-65
2023/08/26 01:01:59;;;;;;;;;;;;;;;15.55;100.00;100909.91;5026873;28;20051;-65
2023/08/26 01:04:25;;;;;;;;;;;;;;;15.51;100.00;100913.38;5026675;28;20112;-65
2023/08/26 01:06:50;;;;;;;;;;;;;;;15.42;100.00;100917.72;5026070;28;20151;-65
2023/08/26 01:09:15;;;;;;;;;;;;;;;15.41;100.00;100915.97;5025045;28;19972;-65
2023/08/26 01:11:50;;;;;;;;;;;;;;;15.33;100.00;100912.44;5026491;28;20016;-65
2023/08/26 01:14:15;;;;;;;;;;;;;;;15.25;100.00;100912.41;5026568;28;19902;-65
2023/08/26 01:16:40;;;;;;;;;;;;;;;15.23;100.00;100913.25;5026521;28;19933;-65
2023/08/26 01:19:09;;;;;;;;;;;;;;;15.17;100.00;100911.47;5026256;28;19902;-65
2023/08/26 01:21:36;;;;;;;;;;;;;;;15.12;100.00;100911.44;5013512;28;19912;-65
2023/08/26 01:24:01;;;;;;;;;;;;;;;15.07;100.00;100912.28;5024952;28;19909;-65
2023/08/26 01:26:27;;;;;;;;;;;;;;;14.99;100.00;100914.88;5025955;28;19914;-65
2023/08/26 01:28:52;;;;;;;;;;;;;;;14.95;100.00;100913.97;5026095;28;19901;-65
2023/08/26 01:31:19;;;;;;;;;;;;;;;14.87;100.00;100917.41;5025727;28;19902;-65
2023/08/26 01:33:50;;;;;;;;;;;;;;;14.81;100.00;100926.09;5026258;28;19901;-65
2023/08/26 01:36:19;;;;;;;;;;;;;;;14.77;100.00;100919.06;5026124;28;19914;-64
2023/08/26 01:38:45;;;;;;;;;;;;;;;14.72;100.00;100916.41;5025151;28;19906;-65
2023/08/26 01:41:11;;;;;;;;;;;;;;;14.67;100.00;100914.63;5026547;28;20166;-64
2023/08/26 01:43:36;;;;;;;;;;;;;;;14.65;100.00;100917.25;5026065;28;20237;-65
2023/08/26 01:46:01;;;;;;;;;;;;;;;14.64;100.00;100923.34;5025998;28;20090;-65
2023/08/26 01:48:27;;;;;;;;;;;;;;;14.58;100.00;100923.25;5025875;28;20036;-65
2023/08/26 01:50:52;;;;;;;;;;;;;;;14.57;100.00;100921.50;5025434;28;19912;-65
2023/08/26 01:53:17;;;;;;;;;;;;;;;14.55;100.00;100928.50;5025118;28;19905;-65
2023/08/26 01:55:42;;;;;;;;;;;;;;;14.47;100.00;100914.41;5025708;28;20086;-65
2023/08/26 01:58:10;;;;;;;;;;;;;;;14.43;100.00;100922.25;5024714;28;19909;-65
2023/08/26 02:00:35;;;;;;;;;;;;;;;14.41;100.00;100931.88;5025318;28;20048;-65
2023/08/26 02:03:01;;;;;;;;;;;;;;;14.40;100.00;100930.09;5022435;28;19978;-65
2023/08/26 02:05:26;;;;;;;;;;;;;;;14.38;100.00;100921.38;5024889;28;20055;-65
2023/08/26 02:07:51;;;;;;;;;;;;;;;14.33;100.00;100932.66;5025463;28;20051;-65
2023/08/26 02:10:16;;;;;;;;;;;;;;;14.30;100.00;100928.25;5025191;28;19901;-65
2023/08/26 02:12:42;;;;;;;;;;;;;;;14.26;100.00;100924.75;5024100;28;19908;-65
2023/08/26 02:15:07;;;;;;;;;;;;;;;14.21;100.00;100922.94;5025449;28;19905;-65
2023/08/26 02:17:32;;;;;;;;;;;;;;;14.20;100.00;100922.03;5025401;28;19902;-65
2023/08/26 02:19:57;;;;;;;;;;;;;;;14.12;100.00;100918.50;5024923;28;19905;-65
2023/08/26 02:22:23;;;;;;;;;;;;;;;14.08;100.00;100922.81;5025126;28;19909;-64
2023/08/26 02:24:48;;;;;;;;;;;;;;;14.04;100.00;100923.63;5032516;28;19944;-65
2023/08/26 02:27:13;;;;;;;;;;;;;;;14.01;100.00;100920.97;5025144;28;20205;-64
2023/08/26 02:29:38;;;;;;;;;;;;;;;13.99;100.00;100922.72;5024861;28;19976;-64
2023/08/26 02:32:04;;;;;;;;;;;;;;;13.96;100.00;100920.06;5025264;28;19908;-64
2023/08/26 02:34:29;;;;;;;;;;;;;;;13.95;100.00;100926.16;5025066;28;20115;-64
2023/08/26 02:36:54;;;;;;;;;;;;;;;13.91;100.00;100922.63;5025139;28;19958;-64
2023/08/26 02:39:22;;;;;;;;;;;;;;;13.89;100.00;100926.09;5023319;28;19973;-64
2023/08/26 02:41:48;;;;;;;;;;;;;;;13.86;100.00;100921.72;5025272;28;20055;-64
2023/08/26 02:44:13;;;;;;;;;;;;;;;13.84;100.00;100922.53;5025287;28;20115;-64
2023/08/26 02:46:38;;;;;;;;;;;;;;;13.82;100.00;100924.28;5024900;28;20218;-65
2023/08/26 02:49:03;;;;;;;;;;;;;;;13.80;100.00;100916.41;5024892;28;20151;-65
2023/08/26 02:51:29;;;;;;;;;;;;;;;13.78;100.00;100917.25;5024834;28;20131;-65
2023/08/26 02:53:54;;;;;;;;;;;;;;;13.72;100.00;100913.69;5024290;28;19909;-65
2023/08/26 02:56:19;;;;;;;;;;;;;;;13.70;100.00;100912.78;5024344;28;20143;-64
2023/08/26 02:58:44;;;;;;;;;;;;;;;13.67;100.00;100914.47;5014379;28;19909;-65
2023/08/26 03:01:09;;;;;;;;;;;;;;;13.65;100.00;100910.97;5024572;28;19940;-65
2023/08/26 03:03:38;;;;;;;;;;;;;;;13.60;100.00;100910.94;5024760;28;19902;-65
2023/08/26 03:06:03;;;;;;;;;;;;;;;13.64;100.00;100914.44;5020391;28;19933;-64
2023/08/26 03:08:28;;;;;;;;;;;;;;;13.59;100.00;100917.00;5005094;28;20140;-64
2023/08/26 03:11:00;;;;;;;;;;;;;;;13.55;100.00;100920.44;5022641;28;19913;-65
2023/08/26 03:13:25;;;;;;;;;;;;;;;13.51;100.00;100908.19;5024709;28;19980;-64
2023/08/26 03:15:51;;;;;;;;;;;;;;;13.49;100.00;100915.16;5024196;28;19913;-65
2023/08/26 03:18:16;;;;;;;;;;;;;;;13.48;100.00;100918.63;5024955;28;19901;-65
2023/08/26 03:20:41;;;;;;;;;;;;;;;13.46;100.00;100925.59;5024312;28;20117;-65
2023/08/26 03:23:06;;;;;;;;;;;;;;;13.41;100.00;100922.88;5035024;28;19917;-64
2023/08/26 03:25:36;;;;;;;;;;;;;;;13.39;100.00;100919.38;5024978;28;19905;-65
2023/08/26 03:28:01;;;;;;;;;;;;;;;13.38;100.00;100921.13;5024223;28;19909;-65
2023/08/26 03:30:26;;;;;;;;;;;;;;;13.34;100.00;100924.56;5024337;28;19964;-65
2023/08/26 03:32:51;;;;;;;;;;;;;;;13.32;100.00;100923.59;5024415;28;20040;-64
2023/08/26 03:35:16;;;;;;;;;;;;;;;13.30;100.00;100924.47;5023754;28;19901;-64
2023/08/26 03:37:42;;;;;;;;;;;;;;;13.28;100.00;100916.59;5012344;28;19905;-64
2023/08/26 03:40:08;;;;;;;;;;;;;;;13.28;100.00;100923.53;5023103;28;20070;-64
2023/08/26 03:42:34;;;;;;;;;;;;;;;13.26;100.00;100928.75;5024387;28;19925;-64
2023/08/26 03:44:59;;;;;;;;;;;;;;;13.24;100.00;100920.03;5024472;28;19988;-64
2023/08/26 03:47:24;;;;;;;;;;;;;;;13.22;100.00;100924.34;5023916;28;19909;-64
2023/08/26 03:49:49;;;;;;;;;;;;;;;13.18;100.00;100925.19;5024380;28;19901;-64
2023/08/26 03:52:15;;;;;;;;;;;;;;;13.17;100.00;100933.88;5024102;28;19956;-64
2023/08/26 03:54:41;;;;;;;;;;;;;;;13.16;100.00;100932.09;5023033;28;20079;-64
2023/08/26 03:57:06;;;;;;;;;;;;;;;13.17;100.00;100933.88;5024321;28;19908;-64
2023/08/26 03:59:31;;;;;;;;;;;;;;;13.13;100.00;100934.69;5022984;28;20119;-64
2023/08/26 04:01:56;;;;;;;;;;;;;;;13.09;100.00;100931.13;5024092;28;19902;-64
2023/08/26 04:04:21;;;;;;;;;;;;;;;13.03;100.00;100941.50;5024016;28;19924;-64
2023/08/26 04:06:47;;;;;;;;;;;;;;;13.01;100.00;100933.66;5023806;28;19952;-64
2023/08/26 04:09:12;;;;;;;;;;;;;;;13.00;100.00;100937.09;5022891;28;19941;-64
2023/08/26 04:11:37;;;;;;;;;;;;;;;12.99;100.00;100940.59;5023484;28;19912;-64
2023/08/26 04:14:03;;;;;;;;;;;;;;;12.98;100.00;100948.44;5024154;28;19908;-64
2023/08/26 04:16:28;;;;;;;;;;;;;;;12.95;100.00;100946.63;5023986;28;19931;-64
2023/08/26 04:18:54;;;;;;;;;;;;;;;12.88;100.00;100945.66;5023582;28;19905;-64
2023/08/26 04:21:19;;;;;;;;;;;;;;;12.87;100.00;100956.09;5025712;28;19910;-64
2023/08/26 04:23:45;;;;;;;;;;;;;;;12.83;100.00;100952.56;5040909;28;20247;-64
2023/08/26 04:26:10;;;;;;;;;;;;;;;12.80;100.00;100960.34;5025971;28;19915;-64
2023/08/26 04:28:35;;;;;;;;;;;;;;;12.79;100.00;100960.31;5027477;28;19902;-64
2023/08/26 04:31:00;;;;;;;;;;;;;;;12.74;100.00;100959.38;5027204;28;19941;-64
2023/08/26 04:33:26;;;;;;;;;;;;;;;12.70;100.00;100967.16;5027277;28;20199;-64
2023/08/26 04:35:51;;;;;;;;;;;;;;;12.70;100.00;100964.56;5027361;28;19944;-64
2023/08/26 04:38:16;;;;;;;;;;;;;;;12.69;100.00;100967.13;5027344;28;19977;-64
2023/08/26 04:40:41;;;;;;;;;;;;;;;12.68;100.00;100968.84;5026163;28;19952;-64
2023/08/26 04:43:08;;;;;;;;;;;;;;;12.64;100.00;100969.69;5027037;28;19909;-64
2023/08/26 04:45:34;;;;;;;;;;;;;;;12.64;100.00;100968.78;5027118;28;19910;-64
2023/08/26 04:47:59;;;;;;;;;;;;;;;12.64;100.00;100969.69;5027026;28;19916;-64
2023/08/26 04:50:25;;;;;;;;;;;;;;;12.61;100.00;100974.81;5027337;28;19908;-64
2023/08/26 04:52:50;;;;;;;;;;;;;;;12.57;100.00;100982.59;5026697;28;19910;-64
2023/08/26 04:55:16;;;;;;;;;;;;;;;12.54;100.00;100991.25;5027024;28;19929;-64
2023/08/26 04:57:41;;;;;;;;;;;;;;;12.52;100.00;100979.91;5026000;28;19947;-64
2023/08/26 05:00:10;;;;;;;;;;;;;;;12.50;100.00;100984.25;5026510;28;19913;-64
2023/08/26 05:02:35;;;;;;;;;;;;;;;12.48;100.00;100989.44;5026068;28;19912;-64
2023/08/26 05:05:01;;;;;;;;;;;;;;;12.49;100.00;100991.19;5025996;28;19905;-64
2023/08/26 05:07:26;;;;;;;;;;;;;;;12.48;100.00;100992.06;5026559;28;19953;-64
2023/08/26 05:09:51;;;;;;;;;;;;;;;12.49;100.00;100996.41;5026723;28;19906;-64
2023/08/26 05:12:17;;;;;;;;;;;;;;;12.51;100.00;100999.03;5026785;28;19914;-64
2023/08/26 05:14:42;;;;;;;;;;;;;;;12.53;100.00;100997.38;5026745;28;20139;-64
2023/08/26 05:17:07;;;;;;;;;;;;;;;12.52;100.00;100998.19;5026530;28;19902;-64
2023/08/26 05:19:32;;;;;;;;;;;;;;;12.53;100.00;100997.38;5026299;28;19924;-64
2023/08/26 05:21:57;;;;;;;;;;;;;;;12.57;100.00;101000.91;5033224;28;19908;-63
2023/08/26 05:24:23;;;;;;;;;;;;;;;12.55;100.00;101008.72;5028449;28;19905;-64
2023/08/26 05:26:48;;;;;;;;;;;;;;;12.53;100.00;101002.59;5025655;28;19909;-64
2023/08/26 05:29:13;;;;;;;;;;;;;;;12.53;100.00;100998.22;5025427;28;19940;-64
2023/08/26 05:31:38;;;;;;;;;;;;;;;12.54;100.00;100993.88;5026039;28;19904;-64
2023/08/26 05:34:04;;;;;;;;;;;;;;;12.57;100.00;100993.06;5026208;28;19909;-64
2023/08/26 05:36:29;;;;;;;;;;;;;;;12.57;100.00;100993.06;5025772;28;20047;-64
2023/08/26 05:38:54;;;;;;;;;;;;;;;12.59;100.00;101001.81;5026117;28;19933;-64
2023/08/26 05:41:19;;;;;;;;;;;;;;;12.59;100.00;100992.22;5025687;28;19992;-63
2023/08/26 05:43:44;;;;;;;;;;;;;;;12.62;100.00;100989.66;5026256;28;19902;-64
2023/08/26 05:46:10;;;;;;;;;;;;;;;12.66;100.00;100986.25;5026012;28;19929;-63
2023/08/26 05:48:35;;;;;;;;;;;;;;;12.70;100.00;100988.06;5024188;28;19909;-64
2023/08/26 05:51:00;;;;;;;;;;;;;;;12.74;100.00;100993.34;5025899;28;19894;-63
2023/08/26 05:53:28;;;;;;;;;;;;;;;12.75;100.00;100985.53;5026019;28;19945;-64
2023/08/26 05:55:54;;;;;;;;;;;;;;;12.78;100.00;100979.47;5025006;28;19941;-63
2023/08/26 05:58:19;;;;;;;;;;;;;;;12.82;100.00;100974.31;5025302;28;19902;-64
2023/08/26 06:00:44;;;;;;;;;;;;;;;12.85;100.00;100979.59;5023870;28;19906;-63
2023/08/26 06:03:09;;;;;;;;;;;;;;;12.87;100.00;100990.97;5025581;28;20094;-63
2023/08/26 06:05:35;;;;;;;;;;;;;;;12.90;100.00;100987.50;5025836;28;19924;-64
2023/08/26 06:08:00;;;;;;;;;;;;;;;12.92;100.00;100984.91;5025659;28;20136;-63
2023/08/26 06:10:25;;;;;;;;;;;;;;;12.93;100.00;100977.09;5025131;28;19902;-63
2023/08/26 06:12:51;;;;;;;;;;;;;;;12.98;100.00;100985.03;5025579;28;19901;-64
2023/08/26 06:15:16;;;;;;;;;;;;;;;13.01;100.00;100979.84;5022362;28;19905;-64
2023/08/26 06:17:41;;;;;;;;;;;;;;;13.03;100.00;100976.41;5024373;28;20135;-63
2023/08/26 06:20:07;;;;;;;;;;;;;;;13.07;100.00;100977.31;5025432;28;19898;-64
2023/08/26 06:22:32;;;;;;;;;;;;;;;13.11;100.00;100967.81;5038787;28;19939;-64
2023/08/26 06:24:57;;;;;;;;;;;;;;;13.13;100.00;100977.41;5025403;28;19908;-64
2023/08/26 06:27:23;;;;;;;;;;;;;;;13.20;100.00;100975.78;5025368;28;20077;-64
2023/08/26 06:29:53;;;;;;;;;;;;;;;13.25;100.00;100974.09;5022750;28;21290;-64
2023/08/26 06:32:19;;;;;;;;;;;;;;;13.28;100.00;100974.16;5025195;28;19906;-63
2023/08/26 06:34:44;;;;;;;;;;;;;;;13.33;100.00;100982.94;5025000;28;19897;-64
2023/08/26 06:37:09;;;;;;;;;;;;;;;13.36;100.00;100980.41;5023969;28;19905;-64
2023/08/26 06:39:35;;;;;;;;;;;;;;;13.43;100.00;100977.91;5025009;28;20256;-64
2023/08/26 06:42:00;;;;;;;;;;;;;;;13.47;100.00;100979.66;5024943;28;19902;-64
2023/08/26 06:44:25;;;;;;;;;;;;;;;13.51;100.00;100974.53;5023929;28;19927;-64
2023/08/26 06:46:51;;;;;;;;;;;;;;;13.55;100.00;100973.69;5024845;28;20165;-64
2023/08/26 06:49:16;;;;;;;;;;;;;;;13.61;100.00;100972.88;5024849;28;19901;-64
2023/08/26 06:51:41;;;;;;;;;;;;;;;13.66;100.00;100965.97;5022772;28;19959;-64
2023/08/26 06:54:06;;;;;;;;;;;;;;;13.71;100.00;100971.28;5024662;28;19925;-64
2023/08/26 06:56:32;;;;;;;;;;;;;;;13.78;100.00;100967.88;5024763;28;19948;-64
2023/08/26 06:58:57;;;;;;;;;;;;;;;13.87;100.00;100964.47;5022658;28;20140;-64
2023/08/26 07:01:22;;;;;;;;;;;;;;;13.92;100.00;100965.44;5024479;28;19912;-64
2023/08/26 07:03:47;;;;;;;;;;;;;;;14.02;100.00;100969.00;5024536;28;19942;-64
2023/08/26 07:06:12;;;;;;;;;;;;;;;14.07;100.00;100968.22;5024230;28;19964;-64
2023/08/26 07:08:38;;;;;;;;;;;;;;;14.20;100.00;100981.47;5024160;28;19906;-64
2023/08/26 07:11:03;;;;;;;;;;;;;;;14.29;100.00;100983.28;5024095;28;19905;-64
2023/08/26 07:13:28;;;;;;;;;;;;;;;14.29;100.00;100978.91;5020595;28;19905;-64
2023/08/26 07:15:53;;;;;;;;;;;;;;;14.33;100.00;100978.09;5023214;28;20056;-64
2023/08/26 07:18:18;;;;;;;;;;;;;;;14.38;100.00;100978.13;5015130;28;19909;-64
2023/08/26 07:20:44;;;;;;;;;;;;;;;14.43;100.00;100987.81;5023227;28;19960;-64
2023/08/26 07:23:09;;;;;;;;;;;;;;;14.50;100.00;100986.13;5021142;28;20143;-64
2023/08/26 07:25:34;;;;;;;;;;;;;;;14.57;100.00;100981.81;5020373;28;19906;-64
2023/08/26 07:28:00;;;;;;;;;;;;;;;14.63;100.00;100986.25;5021879;28;20146;-64
2023/08/26 07:30:26;;;;;;;;;;;;;;;14.70;100.00;100983.75;5023650;28;19909;-64
2023/08/26 07:32:52;;;;;;;;;;;;;;;14.78;100.00;100984.66;5023360;28;19913;-64
2023/08/26 07:35:17;;;;;;;;;;;;;;;14.88;100.00;100984.75;5023541;28;19902;-64
2023/08/26 07:37:43;;;;;;;;;;;;;;;14.92;100.00;100976.03;5024674;28;19905;-64
2023/08/26 07:40:12;;;;;;;;;;;;;;;14.98;100.00;100976.09;5024261;28;19901;-64
2023/08/26 07:42:37;;;;;;;;;;;;;;;15.07;100.00;100984.00;5024982;28;19920;-64
2023/08/26 07:45:02;;;;;;;;;;;;;;;15.19;100.00;100987.59;5016565;28;19968;-64
2023/08/26 07:47:28;;;;;;;;;;;;;;;15.25;100.00;100983.28;5024218;28;19928;-64
2023/08/26 07:49:53;;;;;;;;;;;;;;;15.36;100.00;100983.34;5022372;28;19913;-65
2023/08/26 07:52:18;;;;;;;;;;;;;;;15.44;100.00;100988.66;5023503;28;20136;-65
2023/08/26 07:54:43;;;;;;;;;;;;;;;15.52;100.00;100988.69;5025051;28;19933;-65
2023/08/26 07:57:08;;;;;;;;;;;;;;;15.60;100.00;100992.25;5025214;28;19960;-65
2023/08/26 07:59:34;;;;;;;;;;;;;;;15.68;100.00;100990.50;5026000;28;19910;-65
2023/08/26 08:01:59;;;;;;;;;;;;;;;15.75;100.00;100987.03;5027130;28;19921;-65
2023/08/26 08:04:24;;;;;;;;;;;;;;;15.81;100.00;100994.09;5032422;28;19916;-65
2023/08/26 08:06:49;;;;;;;;;;;;;;;15.96;99.44;100991.56;5028632;28;19909;-65
2023/08/26 08:09:14;;;;;;;;;;;;;;;16.08;98.79;100995.09;5035697;28;19915;-65
2023/08/26 08:11:40;;;;;;;;;;;;;;;16.14;98.33;100990.72;5037483;28;19927;-65
2023/08/26 08:14:05;;;;;;;;;;;;;;;16.23;98.13;100995.13;5021718;28;19913;-65
2023/08/26 08:16:30;;;;;;;;;;;;;;;16.27;98.48;100982.88;5032704;28;19931;-65
2023/08/26 08:18:55;;;;;;;;;;;;;;;16.33;98.14;100982.88;5028113;28;19901;-65
2023/08/26 08:21:20;;;;;;;;;;;;;;;16.46;97.42;100992.53;5027927;28;19909;-65
2023/08/26 08:23:46;;;;;;;;;;;;;;;16.54;95.88;100987.31;5027469;28;19916;-65
2023/08/26 08:26:11;;;;;;;;;;;;;;;16.67;95.41;100982.94;5029635;28;19915;-65
2023/08/26 08:28:37;;;;;;;;;;;;;;;16.77;97.01;100978.53;5029465;28;19917;-65
2023/08/26 08:31:02;;;;;;;;;;;;;;;16.93;97.00;100976.81;5027428;28;19901;-65
2023/08/26 08:33:27;;;;;;;;;;;;;;;17.03;95.17;100979.47;5030123;28;20059;-65
2023/08/26 08:35:52;;;;;;;;;;;;;;;17.14;96.03;100970.66;5024648;28;19905;-65
2023/08/26 08:38:18;;;;;;;;;;;;;;;17.29;95.38;100969.75;5025680;28;19913;-65
2023/08/26 08:40:43;;;;;;;;;;;;;;;17.39;95.79;100976.75;5026644;28;19902;-65
2023/08/26 08:43:08;;;;;;;;;;;;;;;17.38;91.45;100973.25;5026514;28;19906;-64
2023/08/26 08:45:34;;;;;;;;;;;;;;;17.40;94.01;100975.88;5025675;28;19909;-64
2023/08/26 08:47:59;;;;;;;;;;;;;;;17.51;93.67;100984.63;5025848;28;20040;-64
2023/08/26 08:50:24;;;;;;;;;;;;;;;17.72;94.82;100981.03;5020518;28;19905;-64
2023/08/26 08:52:51;;;;;;;;;;;;;;;18.01;90.35;100982.69;5017013;28;19910;-64
2023/08/26 08:55:17;;;;;;;;;;;;;;;18.09;91.13;100980.06;5016127;28;19909;-64
2023/08/26 08:57:43;;;;;;;;;;;;;;;18.14;88.98;100986.16;5015014;28;20112;-64
2023/08/26 09:00:08;;;;;;;;;;;;;;;18.28;89.14;100998.38;5030035;28;20094;-62
2023/08/26 09:02:37;;;;;;;;;;;;;;;18.40;90.40;100995.69;5019164;28;20140;-59
2023/08/26 09:05:03;;;;;;;;;;;;;;;18.49;87.09;101000.03;5023721;28;19906;-59
2023/08/26 09:07:28;;;;;;;;;;;;;;;18.54;89.94;101000.88;5023420;28;19983;-59
2023/08/26 09:09:54;;;;;;;;;;;;;;;18.66;86.98;101002.56;5019241;28;19941;-60
2023/08/26 09:12:19;;;;;;;;;;;;;;;18.77;88.64;101000.72;5020205;28;20097;-59
2023/08/26 09:14:44;;;;;;;;;;;;;;;18.88;86.25;100998.88;5020633;28;19909;-59
2023/08/26 09:17:19;;;;;;;;;;;;;;;18.86;86.42;101010.31;5020119;28;19909;-59
2023/08/26 09:19:55;;;;;;;;;;;;;;;18.81;84.50;101017.38;5026965;28;20107;-59
2023/08/26 09:22:30;;;;;;;;;;;;;;;18.70;84.88;101005.16;5029563;28;19909;-59
2023/08/26 09:25:00;;;;;;;;;;;;;;;18.65;83.71;101016.63;5026408;28;19916;-59
2023/08/26 09:27:25;;;;;;;;;;;;;;;18.56;86.01;101013.16;5029792;28;19968;-58
2023/08/26 09:29:51;;;;;;;;;;;;;;;18.58;84.54;101023.69;5022635;28;19906;-59
2023/08/26 09:32:32;;;;;;;;;;;;;;;18.53;85.42;101021.09;5024045;28;19961;-59
2023/08/26 09:35:07;;;;;;;;;;;;;;;18.59;83.46;101020.19;5023577;28;19912;-59
2023/08/26 09:37:32;;;;;;;;;;;;;;;18.57;84.06;101020.19;5026025;28;19905;-59
2023/08/26 09:39:57;;;;;;;;;;;;;;;18.54;85.18;101025.50;5026047;28;20103;-58
2023/08/26 09:42:23;;;;;;;;;;;;;;;18.58;83.28;101024.59;5025137;28;19929;-58
2023/08/26 09:44:49;;;;;;;;;;;;;;;18.64;82.93;101023.69;5022935;28;19968;-58
2023/08/26 09:47:14;;;;;;;;;;;;;;;18.79;82.08;101025.31;5025805;28;19917;-58
2023/08/26 09:49:46;;;;;;;;;;;;;;;19.01;80.81;101014.63;5024040;28;19933;-58
2023/08/26 09:52:11;;;;;;;;;;;;;;;19.08;80.38;101017.19;5023962;28;19909;-58
2023/08/26 09:54:37;;;;;;;;;;;;;;;19.19;79.41;101022.38;5022441;28;19928;-58
2023/08/26 09:57:03;;;;;;;;;;;;;;;19.31;79.09;101018.75;5021673;28;20143;-58
2023/08/26 09:59:28;;;;;;;;;;;;;;;19.40;79.46;101017.78;5020895;28;19924;-58
2023/08/26 10:01:53;;;;;;;;;;;;;;;19.41;77.66;101020.41;5017746;28;19976;-58
2023/08/26 10:04:26;;;;;;;;;;;;;;;19.30;77.02;101022.28;5020455;28;19972;-58
2023/08/26 10:06:53;;;;;;;;;;;;;;;19.21;77.06;101017.94;5022970;28;20230;-58
2023/08/26 10:09:18;;;;;;;;;;;;;;;19.10;78.68;101014.53;5019607;28;19909;-58
2023/08/26 10:11:46;;;;;;;;;;;;;;;19.17;75.85;101018.00;5022596;28;19905;-58
2023/08/26 10:14:12;;;;;;;;;;;;;;;19.02;76.89;101019.03;5022773;28;19913;-58
2023/08/26 10:16:38;;;;;;;;;;;;;;;19.01;78.12;101030.47;5019602;28;20154;-58
2023/08/26 10:19:03;;;;;;;;;;;;;;;19.03;78.28;101020.75;5020327;28;19981;-58
2023/08/26 10:21:29;;;;;;;;;;;;;;;19.15;79.38;101022.41;5023439;28;19909;-58
2023/08/26 10:23:54;;;;;;;;;;;;;;;19.27;78.32;101025.81;5021662;28;19916;-58
2023/08/26 10:26:20;;;;;;;;;;;;;;;19.47;78.51;101024.75;5021891;28;19921;-62
2023/08/26 10:28:47;;;;;;;;;;;;;;;19.68;76.27;101022.75;5021377;28;19905;-59
2023/08/26 10:31:13;;;;;;;;;;;;;;;19.88;75.75;101023.44;5020157;28;20051;-59
2023/08/26 10:33:56;;;;;;;;;;;;;;;19.86;77.67;101014.66;5018199;28;19914;-58
2023/08/26 10:36:22;;;;;;;;;;;;;;;19.83;77.10;101017.34;5018207;28;19924;-58
2023/08/26 10:38:54;;;;;;;;;;;;;;;19.87;77.27;101019.06;5030253;28;19905;-59
2023/08/26 10:41:20;;;;;;;;;;;;;;;19.87;77.08;101018.16;5019208;28;19925;-59
2023/08/26 10:44:01;;;;;;;;;;;;;;;20.03;76.43;101021.50;5032364;28;19922;-58
2023/08/26 10:46:33;;;;;;;;;;;;;;;20.10;78.03;101024.06;5030125;28;19953;-58
2023/08/26 10:48:59;;;;;;;;;;;;;;;20.29;75.32;101016.75;5030671;28;19905;-59
2023/08/26 10:51:25;;;;;;;;;;;;;;;20.47;74.68;101009.44;5024335;28;19924;-59
2023/08/26 10:53:50;;;;;;;;;;;;;;;20.39;73.81;101008.66;5024657;28;19928;-59
2023/08/26 10:56:19;;;;;;;;;;;;;;;20.54;71.92;101010.19;5024374;28;19905;-59
2023/08/26 10:58:45;;;;;;;;;;;;;;;20.59;72.81;101006.59;5026897;28;19917;-58
2023/08/26 11:01:11;;;;;;;;;;;;;;;20.64;71.91;101006.53;5025115;28;20159;-58
2023/08/26 11:03:37;;;;;;;;;;;;;;;20.72;72.03;100993.19;5023024;28;19913;-58
2023/08/26 11:06:02;;;;;;;;;;;;;;;20.82;70.37;101000.09;5020404;28;19960;-59
2023/08/26 11:08:27;;;;;;;;;;;;;;;20.91;71.90;100991.13;5025961;28;19972;-58
2023/08/26 11:10:52;;;;;;;;;;;;;;;21.07;69.24;101000.53;5033051;28;19912;-59
2023/08/26 11:13:20;;;;;;;;;;;;;;;21.00;68.44;100994.50;5020594;28;19931;-59
2023/08/26 11:15:46;;;;;;;;;;;;;;;21.00;70.19;100994.50;5020188;28;19969;-59
2023/08/26 11:18:11;;;;;;;;;;;;;;;21.09;69.52;100990.81;5019284;28;20217;-59
2023/08/26 11:20:37;;;;;;;;;;;;;;;21.24;73.28;100987.00;5022428;28;19964;-59
2023/08/26 11:23:03;;;;;;;;;;;;;;;21.22;68.66;100991.47;5015911;28;19940;-59
2023/08/26 11:25:28;;;;;;;;;;;;;;;21.29;70.68;100978.94;5022831;28;19993;-59
2023/08/26 11:27:54;;;;;;;;;;;;;;;21.29;67.21;100985.13;5020445;28;20047;-59
2023/08/26 11:30:19;;;;;;;;;;;;;;;21.29;64.28;100985.13;5023734;28;19949;-59
2023/08/26 11:32:49;;;;;;;;;;;;;;;20.98;67.20;100984.81;5028623;28;19928;-59
2023/08/26 11:35:15;;;;;;;;;;;;;;;20.93;68.56;100979.59;5016845;28;19918;-59
2023/08/26 11:37:44;;;;;;;;;;;;;;;21.09;68.94;100985.50;5029531;28;19977;-59
2023/08/26 11:40:10;;;;;;;;;;;;;;;21.28;66.41;100988.69;5030926;28;19980;-59
2023/08/26 11:42:35;;;;;;;;;;;;;;;21.36;65.64;100981.47;5029426;28;19905;-59
2023/08/26 11:45:00;;;;;;;;;;;;;;;21.52;67.13;100989.13;5029021;28;19912;-60
2023/08/26 11:47:26;;;;;;;;;;;;;;;21.63;67.33;100983.63;5023568;28;19925;-59
2023/08/26 11:49:55;;;;;;;;;;;;;;;21.70;65.29;100991.44;5030486;28;19906;-59
2023/08/26 11:52:22;;;;;;;;;;;;;;;21.70;66.48;100980.81;5026982;28;19901;-60
2023/08/26 11:54:50;;;;;;;;;;;;;;;21.91;62.90;100983.06;5029670;28;19905;-60
2023/08/26 11:57:16;;;;;;;;;;;;;;;21.90;63.42;100987.50;5030882;28;20218;-60
2023/08/26 11:59:43;;;;;;;;;;;;;;;21.78;66.28;100975.34;5029559;28;19902;-59
2023/08/26 12:02:26;;;;;;;;;;;;;;;21.61;63.88;100977.47;5029090;28;20108;-59
2023/08/26 12:04:56;;;;;;;;;;;;;;;21.47;66.59;100983.03;5029293;28;19906;-60
2023/08/26 12:07:21;;;;;;;;;;;;;;;21.42;65.60;100990.19;5028082;28;19921;-60
2023/08/26 12:09:47;;;;;;;;;;;;;;;21.39;66.55;100979.66;5028067;28;20067;-60
2023/08/26 12:12:12;;;;;;;;;;;;;;;21.49;66.09;100983.88;5028059;28;19928;-60
2023/08/26 12:14:37;;;;;;;;;;;;;;;21.45;64.94;100985.72;5029294;28;19905;-60
2023/08/26 12:17:03;;;;;;;;;;;;;;;21.40;65.86;100979.63;5029627;28;20060;-61
2023/08/26 12:19:30;;;;;;;;;;;;;;;21.63;66.49;100978.34;5029705;28;20079;-62
2023/08/26 12:21:57;;;;;;;;;;;;;;;21.99;65.28;100975.81;5032643;28;19924;-60
2023/08/26 12:24:23;;;;;;;;;;;;;;;22.24;67.38;100971.69;5034416;28;20197;-60